Time,TemperatureF,DewpointF,PressureIn,WindDirection,WindDirectionDegrees,WindSpeedMPH,WindSpeedGustMPH,Humidity,HourlyPrecipIn,Conditions,Clouds,dailyrainin,SoftwareType,DateUTC
2013-06-19 00:05:00,68.5,64.8,29.97,ESE,103,1.0,3.0,88,0.00,,,0.00,Wunderground v.1.15,2013-06-19 05:05:00,
2013-06-19 00:10:00,68.6,64.9,29.97,ESE,103,2.0,2.0,88,0.00,,,0.00,Wunderground v.1.15,2013-06-19 05:10:00,
2013-06-19 00:27:00,68.4,64.7,29.97,ESE,103,1.0,1.0,88,0.00,,,0.00,Wunderground v.1.15,2013-06-19 05:27:00,
2013-06-19 00:32:00,68.3,64.6,29.98,ESE,103,0.0,1.0,88,0.00,,,0.00,Wunderground v.1.15,2013-06-19 05:32:00,
2013-06-19 00:38:00,68.3,64.9,29.98,ESE,103,0.0,1.0,89,0.00,,,0.00,Wunderground v.1.15,2013-06-19 05:38:00,
2013-06-19 00:43:00,68.3,64.9,29.98,ESE,103,0.0,1.0,89,0.00,,,0.00,Wunderground v.1.15,2013-06-19 05:43:00,
2013-06-19 00:49:00,68.1,64.7,29.98,ESE,103,0.0,1.0,89,0.00,,,0.00,Wunderground v.1.15,2013-06-19 05:49:00,
2013-06-19 00:54:00,68.0,64.3,29.98,ESE,103,0.0,1.0,88,0.00,,,0.00,Wunderground v.1.15,2013-06-19 05:54:00,
2013-06-19 01:00:00,67.9,64.2,29.98,ESE,103,0.0,1.0,88,0.00,,,0.00,Wunderground v.1.15,2013-06-19 06:00:00,
2013-06-19 01:06:00,67.9,64.5,29.98,ESE,103,0.0,1.0,89,0.00,,,0.00,Wunderground v.1.15,2013-06-19 06:06:00,
2013-06-19 01:11:00,67.7,64.3,29.98,ESE,103,0.0,1.0,89,0.00,,,0.00,Wunderground v.1.15,2013-06-19 06:11:00,
2013-06-19 01:17:00,67.5,64.1,29.98,ESE,103,0.0,1.0,89,0.00,,,0.00,Wunderground v.1.15,2013-06-19 06:17:00,
2013-06-19 01:22:00,67.4,64.0,29.98,ESE,103,0.0,1.0,89,0.00,,,0.00,Wunderground v.1.15,2013-06-19 06:22:00,
2013-06-19 01:28:00,67.2,63.8,29.98,ESE,103,0.0,1.0,89,0.00,,,0.00,Wunderground v.1.15,2013-06-19 06:28:00,
2013-06-19 01:33:00,67.1,64.1,29.98,ESE,103,0.0,1.0,90,0.00,,,0.00,Wunderground v.1.15,2013-06-19 06:33:00,
2013-06-19 01:39:00,67.1,64.1,29.98,ESE,103,0.0,1.0,90,0.00,,,0.00,Wunderground v.1.15,2013-06-19 06:39:00,
2013-06-19 01:44:00,67.1,64.1,29.98,ESE,103,0.0,1.0,90,0.00,,,0.00,Wunderground v.1.15,2013-06-19 06:44:00,
2013-06-19 01:50:00,67.1,64.1,29.98,ESE,103,0.0,1.0,90,0.00,,,0.00,Wunderground v.1.15,2013-06-19 06:50:00,
2013-06-19 01:55:00,67.1,64.1,29.98,ESE,103,0.0,1.0,90,0.00,,,0.00,Wunderground v.1.15,2013-06-19 06:55:00,
2013-06-19 02:01:00,67.1,63.7,29.99,ESE,103,0.0,1.0,89,0.00,,,0.00,Wunderground v.1.15,2013-06-19 07:01:00,
2013-06-19 02:06:00,67.2,63.8,29.99,ESE,103,1.0,1.0,89,0.00,,,0.00,Wunderground v.1.15,2013-06-19 07:06:00,
2013-06-19 02:12:00,67.4,63.7,29.99,SSE,150,2.0,4.0,88,0.00,,,0.00,Wunderground v.1.15,2013-06-19 07:12:00,
2013-06-19 02:17:00,67.4,63.4,29.99,SSE,150,2.0,5.0,87,0.00,,,0.00,Wunderground v.1.15,2013-06-19 07:17:00,
2013-06-19 02:23:00,67.3,63.3,29.99,SSE,150,1.0,4.0,87,0.00,,,0.00,Wunderground v.1.15,2013-06-19 07:23:00,
2013-06-19 02:28:00,67.2,63.2,29.99,SSE,150,1.0,4.0,87,0.00,,,0.00,Wunderground v.1.15,2013-06-19 07:28:00,
2013-06-19 02:34:00,67.1,62.8,30.00,SSE,150,0.0,1.0,86,0.00,,,0.00,Wunderground v.1.15,2013-06-19 07:34:00,
2013-06-19 02:39:00,67.0,62.7,29.99,SSE,150,0.0,1.0,86,0.00,,,0.00,Wunderground v.1.15,2013-06-19 07:39:00,
2013-06-19 02:45:00,66.8,62.8,30.00,SSE,150,0.0,1.0,87,0.00,,,0.00,Wunderground v.1.15,2013-06-19 07:45:00,
2013-06-19 02:51:00,66.4,62.7,30.00,SSE,150,0.0,1.0,88,0.00,,,0.00,Wunderground v.1.15,2013-06-19 07:51:00,
2013-06-19 02:56:00,66.1,62.1,30.00,SSE,150,0.0,1.0,87,0.00,,,0.00,Wunderground v.1.15,2013-06-19 07:56:00,
2013-06-19 03:02:00,65.9,61.9,30.00,SSE,150,0.0,1.0,87,0.00,,,0.00,Wunderground v.1.15,2013-06-19 08:02:00,
2013-06-19 03:07:00,65.8,61.8,30.00,SSE,150,0.0,1.0,87,0.00,,,0.00,Wunderground v.1.15,2013-06-19 08:07:00,
2013-06-19 03:13:00,65.7,61.7,30.00,SSE,150,0.0,1.0,87,0.00,,,0.00,Wunderground v.1.15,2013-06-19 08:13:00,
2013-06-19 03:18:00,65.6,61.6,29.99,SSE,150,0.0,1.0,87,0.00,,,0.00,Wunderground v.1.15,2013-06-19 08:18:00,
2013-06-19 03:24:00,65.5,61.5,29.99,SSE,150,0.0,1.0,87,0.00,,,0.00,Wunderground v.1.15,2013-06-19 08:24:00,
2013-06-19 03:29:00,65.4,61.8,29.99,SSE,150,0.0,1.0,88,0.00,,,0.00,Wunderground v.1.15,2013-06-19 08:29:00,
2013-06-19 03:35:00,65.3,62.0,29.99,SSE,150,0.0,1.0,89,0.00,,,0.00,Wunderground v.1.15,2013-06-19 08:35:00,
2013-06-19 03:40:00,65.1,62.1,29.99,SSE,150,0.0,1.0,90,0.00,,,0.00,Wunderground v.1.15,2013-06-19 08:40:00,
2013-06-19 03:46:00,64.9,62.2,29.99,SSE,150,0.0,1.0,91,0.00,,,0.00,Wunderground v.1.15,2013-06-19 08:46:00,
2013-06-19 03:51:00,64.7,62.0,29.99,SSE,150,0.0,1.0,91,0.00,,,0.00,Wunderground v.1.15,2013-06-19 08:51:00,
2013-06-19 03:57:00,64.4,61.7,30.00,SSE,150,0.0,1.0,91,0.00,,,0.00,Wunderground v.1.15,2013-06-19 08:57:00,
2013-06-19 04:02:00,64.4,61.7,30.00,SSE,150,0.0,1.0,91,0.00,,,0.00,Wunderground v.1.15,2013-06-19 09:02:00,
2013-06-19 04:08:00,64.4,61.7,30.00,SSE,150,0.0,1.0,91,0.00,,,0.00,Wunderground v.1.15,2013-06-19 09:08:00,
2013-06-19 04:13:00,64.3,61.6,30.00,SSE,150,0.0,1.0,91,0.00,,,0.00,Wunderground v.1.15,2013-06-19 09:13:00,
2013-06-19 04:19:00,64.3,61.9,30.00,SSE,150,0.0,1.0,92,0.00,,,0.00,Wunderground v.1.15,2013-06-19 09:19:00,
2013-06-19 04:24:00,64.1,61.7,30.00,SSE,150,1.0,1.0,92,0.00,,,0.00,Wunderground v.1.15,2013-06-19 09:24:00,
2013-06-19 04:30:00,63.9,61.5,30.01,SSE,150,1.0,2.0,92,0.00,,,0.00,Wunderground v.1.15,2013-06-19 09:30:00,
2013-06-19 04:35:00,63.8,61.4,30.01,SSE,150,1.0,2.0,92,0.00,,,0.00,Wunderground v.1.15,2013-06-19 09:35:00,
2013-06-19 04:41:00,63.8,61.4,30.01,SSE,150,0.0,1.0,92,0.00,,,0.00,Wunderground v.1.15,2013-06-19 09:41:00,
2013-06-19 04:46:00,63.6,60.9,30.01,SSE,150,0.0,1.0,91,0.00,,,0.00,Wunderground v.1.15,2013-06-19 09:46:00,
2013-06-19 04:52:00,63.6,60.9,30.01,SSE,150,0.0,1.0,91,0.00,,,0.00,Wunderground v.1.15,2013-06-19 09:52:00,
2013-06-19 04:57:00,63.5,60.8,30.01,SSE,150,0.0,1.0,91,0.00,,,0.00,Wunderground v.1.15,2013-06-19 09:57:00,
2013-06-19 05:03:00,63.4,60.7,30.01,SSE,150,0.0,1.0,91,0.00,,,0.00,Wunderground v.1.15,2013-06-19 10:03:00,
2013-06-19 05:09:00,63.3,60.6,30.01,SSE,150,0.0,1.0,91,0.00,,,0.00,Wunderground v.1.15,2013-06-19 10:09:00,
2013-06-19 05:14:00,63.1,60.4,30.01,SSE,150,0.0,1.0,91,0.00,,,0.00,Wunderground v.1.15,2013-06-19 10:14:00,
2013-06-19 05:20:00,63.1,60.4,30.01,SSE,150,0.0,1.0,91,0.00,,,0.00,Wunderground v.1.15,2013-06-19 10:20:00,
2013-06-19 05:25:00,62.9,60.2,30.01,SSE,150,0.0,1.0,91,0.00,,,0.00,Wunderground v.1.15,2013-06-19 10:25:00,
2013-06-19 05:31:00,62.7,60.0,30.01,SSE,150,2.0,2.0,91,0.00,,,0.00,Wunderground v.1.15,2013-06-19 10:31:00,
2013-06-19 05:36:00,62.6,59.9,30.02,SSE,150,2.0,2.0,91,0.00,,,0.00,Wunderground v.1.15,2013-06-19 10:36:00,
2013-06-19 05:42:00,62.6,59.9,30.02,SSE,150,1.0,2.0,91,0.00,,,0.00,Wunderground v.1.15,2013-06-19 10:42:00,
2013-06-19 05:47:00,62.5,59.8,30.01,SSE,150,1.0,4.0,91,0.00,,,0.00,Wunderground v.1.15,2013-06-19 10:47:00,
2013-06-19 05:53:00,62.5,59.8,30.02,SSE,150,2.0,4.0,91,0.00,,,0.00,Wunderground v.1.15,2013-06-19 10:53:00,
2013-06-19 05:58:00,62.6,59.9,30.02,SSE,150,2.0,4.0,91,0.00,,,0.00,Wunderground v.1.15,2013-06-19 10:58:00,
2013-06-19 06:04:00,62.6,59.9,30.03,SSE,150,1.0,2.0,91,0.00,,,0.00,Wunderground v.1.15,2013-06-19 11:04:00,
2013-06-19 06:09:00,62.8,59.8,30.03,SSE,150,0.0,2.0,90,0.00,,,0.00,Wunderground v.1.15,2013-06-19 11:09:00,
2013-06-19 06:15:00,63.1,60.1,30.03,SSE,150,1.0,2.0,90,0.00,,,0.00,Wunderground v.1.15,2013-06-19 11:15:00,
2013-06-19 06:21:00,63.3,60.3,30.03,SSE,150,2.0,2.0,90,0.00,,,0.00,Wunderground v.1.15,2013-06-19 11:21:00,
2013-06-19 06:26:00,63.5,60.5,30.02,SSE,150,1.0,2.0,90,0.00,,,0.00,Wunderground v.1.15,2013-06-19 11:26:00,
2013-06-19 06:31:00,63.6,60.3,30.02,ESE,115,2.0,6.0,89,0.00,,,0.00,Wunderground v.1.15,2013-06-19 11:31:00,
2013-06-19 06:37:00,63.9,60.6,30.02,ESE,119,3.0,6.0,89,0.00,,,0.00,Wunderground v.1.15,2013-06-19 11:37:00,
2013-06-19 06:42:00,64.0,60.7,30.02,ESE,116,3.0,5.0,89,0.00,,,0.00,Wunderground v.1.15,2013-06-19 11:42:00,
2013-06-19 06:48:00,64.4,60.8,30.03,ESE,123,2.0,5.0,88,0.00,,,0.00,Wunderground v.1.15,2013-06-19 11:48:00,
2013-06-19 06:54:00,64.8,60.8,30.03,ESE,112,1.0,2.0,87,0.00,,,0.00,Wunderground v.1.15,2013-06-19 11:54:00,
2013-06-19 07:00:00,64.8,60.5,30.04,ESE,115,2.0,3.0,86,0.00,,,0.00,Wunderground v.1.15,2013-06-19 12:00:00,
2013-06-19 07:06:00,64.7,60.4,30.04,SSE,155,2.0,4.0,86,0.00,,,0.00,Wunderground v.1.15,2013-06-19 12:06:00,
2013-06-19 07:11:00,64.6,60.3,30.05,SSE,154,1.0,4.0,86,0.00,,,0.00,Wunderground v.1.15,2013-06-19 12:11:00,
2013-06-19 07:17:00,64.7,60.4,30.05,SSE,148,1.0,4.0,86,0.00,,,0.00,Wunderground v.1.15,2013-06-19 12:17:00,
2013-06-19 07:22:00,64.9,60.9,30.05,SSE,160,2.0,4.0,87,0.00,,,0.00,Wunderground v.1.15,2013-06-19 12:22:00,
2013-06-19 07:28:00,65.0,60.7,30.05,SSE,159,2.0,4.0,86,0.00,,,0.00,Wunderground v.1.15,2013-06-19 12:28:00,
2013-06-19 07:33:00,65.1,61.1,30.05,SSE,159,1.0,2.0,87,0.00,,,0.00,Wunderground v.1.15,2013-06-19 12:33:00,
2013-06-19 07:39:00,65.2,60.9,30.05,SSE,149,2.0,5.0,86,0.00,,,0.00,Wunderground v.1.15,2013-06-19 12:39:00,
2013-06-19 07:44:00,65.6,61.3,30.05,SE,144,3.0,6.0,86,0.00,,,0.00,Wunderground v.1.15,2013-06-19 12:44:00,
2013-06-19 07:50:00,65.8,61.5,30.05,ESE,122,2.0,2.0,86,0.00,,,0.00,Wunderground v.1.15,2013-06-19 12:50:00,
2013-06-19 07:55:00,66.1,61.5,30.05,SE,141,1.0,4.0,85,0.00,,,0.00,Wunderground v.1.15,2013-06-19 12:55:00,
2013-06-19 08:01:00,66.5,61.8,30.05,SSE,162,2.0,4.0,85,0.00,,,0.00,Wunderground v.1.15,2013-06-19 13:01:00,
2013-06-19 08:06:00,66.7,61.4,30.05,ESE,117,3.0,6.0,83,0.00,,,0.00,Wunderground v.1.15,2013-06-19 13:06:00,
2013-06-19 08:12:00,66.8,61.8,30.05,SSE,157,3.0,5.0,84,0.00,,,0.00,Wunderground v.1.15,2013-06-19 13:12:00,
2013-06-19 08:17:00,67.1,62.1,30.05,SE,140,3.0,5.0,84,0.00,,,0.00,Wunderground v.1.15,2013-06-19 13:17:00,
2013-06-19 08:26:00,67.6,61.9,30.05,SE,144,3.0,5.0,82,0.00,,,0.00,Wunderground v.1.15,2013-06-19 13:26:00,
2013-06-19 08:32:00,67.9,62.5,30.05,SSE,159,3.0,3.0,83,0.00,,,0.00,Wunderground v.1.15,2013-06-19 13:32:00,
2013-06-19 08:37:00,68.2,62.1,30.05,SSE,155,2.0,5.0,81,0.00,,,0.00,Wunderground v.1.15,2013-06-19 13:37:00,
2013-06-19 08:43:00,68.7,63.0,30.05,SSE,150,2.0,3.0,82,0.00,,,0.00,Wunderground v.1.15,2013-06-19 13:43:00,
2013-06-19 08:48:00,69.0,62.9,30.05,SE,141,1.0,6.0,81,0.00,,,0.00,Wunderground v.1.15,2013-06-19 13:48:00,
2013-06-19 08:55:00,69.2,62.8,30.05,SSE,149,2.0,4.0,80,0.00,,,0.00,Wunderground v.1.15,2013-06-19 13:55:00,
2013-06-19 09:01:00,69.7,63.6,30.05,SSE,155,1.0,1.0,81,0.00,,,0.00,Wunderground v.1.15,2013-06-19 14:01:00,
2013-06-19 09:06:00,70.0,63.2,30.05,SSE,157,1.0,6.0,79,0.00,,,0.00,Wunderground v.1.15,2013-06-19 14:06:00,
2013-06-19 09:12:00,70.4,63.6,30.05,SE,144,1.0,1.0,79,0.00,,,0.00,Wunderground v.1.15,2013-06-19 14:12:00,
2013-06-19 09:17:00,70.6,63.4,30.05,SSE,148,2.0,4.0,78,0.00,,,0.00,Wunderground v.1.15,2013-06-19 14:17:00,
2013-06-19 09:23:00,70.7,63.5,30.05,SSE,161,2.0,2.0,78,0.00,,,0.00,Wunderground v.1.15,2013-06-19 14:23:00,
2013-06-19 09:28:00,71.1,63.9,30.05,SSE,161,1.0,2.0,78,0.00,,,0.00,Wunderground v.1.15,2013-06-19 14:28:00,
2013-06-19 09:34:00,71.3,63.7,30.05,SSE,153,1.0,4.0,77,0.00,,,0.00,Wunderground v.1.15,2013-06-19 14:34:00,
2013-06-19 09:39:00,71.6,63.6,30.05,SSE,150,1.0,4.0,76,0.00,,,0.00,Wunderground v.1.15,2013-06-19 14:39:00,
2013-06-19 09:45:00,72.0,64.4,30.05,SSE,147,1.0,3.0,77,0.00,,,0.00,Wunderground v.1.15,2013-06-19 14:45:00,
2013-06-19 09:50:00,71.9,63.9,30.05,SSE,148,1.0,1.0,76,0.00,,,0.00,Wunderground v.1.15,2013-06-19 14:50:00,
2013-06-19 09:56:00,72.1,63.7,30.05,SSE,160,1.0,3.0,75,0.00,,,0.00,Wunderground v.1.15,2013-06-19 14:56:00,
2013-06-19 10:01:00,72.1,63.7,30.05,SSE,160,1.0,1.0,75,0.00,,,0.00,Wunderground v.1.15,2013-06-19 15:01:00,
2013-06-19 10:07:00,72.4,65.2,30.05,SSE,160,1.0,4.0,78,0.00,,,0.00,Wunderground v.1.15,2013-06-19 15:07:00,
2013-06-19 10:12:00,73.1,65.5,30.05,SE,146,0.0,2.0,77,0.00,,,0.00,Wunderground v.1.15,2013-06-19 15:12:00,
2013-06-19 10:18:00,73.3,64.5,30.05,SE,136,1.0,5.0,74,0.00,,,0.00,Wunderground v.1.15,2013-06-19 15:18:00,
2013-06-19 10:23:00,73.5,65.1,30.05,SSE,153,2.0,3.0,75,0.00,,,0.00,Wunderground v.1.15,2013-06-19 15:23:00,
2013-06-19 10:29:00,73.5,64.7,30.05,SE,136,2.0,4.0,74,0.00,,,0.00,Wunderground v.1.15,2013-06-19 15:29:00,
2013-06-19 10:34:00,73.8,65.0,30.05,SSE,162,2.0,5.0,74,0.00,,,0.00,Wunderground v.1.15,2013-06-19 15:34:00,
2013-06-19 10:40:00,74.3,65.9,30.05,SE,127,1.0,1.0,75,0.00,,,0.00,Wunderground v.1.15,2013-06-19 15:40:00,
2013-06-19 10:45:00,74.5,64.9,30.05,SSE,157,2.0,5.0,72,0.00,,,0.00,Wunderground v.1.15,2013-06-19 15:45:00,
2013-06-19 10:51:00,74.7,64.7,30.05,SE,132,2.0,2.0,71,0.00,,,0.00,Wunderground v.1.15,2013-06-19 15:51:00,
2013-06-19 10:56:00,74.8,65.2,30.06,ESE,115,1.0,2.0,72,0.00,,,0.00,Wunderground v.1.15,2013-06-19 15:56:00,
2013-06-19 11:02:00,75.1,65.9,30.06,SE,132,1.0,2.0,73,0.00,,,0.00,Wunderground v.1.15,2013-06-19 16:02:00,
2013-06-19 11:08:00,75.5,65.8,30.06,WSW,240,1.0,5.0,72,0.00,,,0.00,Wunderground v.1.15,2013-06-19 16:08:00,
2013-06-19 11:13:00,75.7,64.8,30.06,SW,236,1.0,2.0,69,0.00,,,0.00,Wunderground v.1.15,2013-06-19 16:13:00,
2013-06-19 11:19:00,76.1,65.6,30.06,SSE,147,1.0,4.0,70,0.00,,,0.00,Wunderground v.1.15,2013-06-19 16:19:00,
2013-06-19 11:24:00,76.4,65.9,30.06,South,180,1.0,1.0,70,0.00,,,0.00,Wunderground v.1.15,2013-06-19 16:24:00,
2013-06-19 11:30:00,76.9,66.4,30.06,South,180,1.0,1.0,70,0.00,,,0.00,Wunderground v.1.15,2013-06-19 16:30:00,
2013-06-19 11:35:00,77.2,66.2,30.05,SE,138,0.0,4.0,69,0.00,,,0.00,Wunderground v.1.15,2013-06-19 16:35:00,
2013-06-19 11:41:00,77.3,65.9,30.05,SSE,156,2.0,2.0,68,0.00,,,0.00,Wunderground v.1.15,2013-06-19 16:41:00,
2013-06-19 11:46:00,77.2,65.4,30.05,SE,126,2.0,2.0,67,0.00,,,0.00,Wunderground v.1.15,2013-06-19 16:46:00,
2013-06-19 11:52:00,77.6,67.4,30.06,East,93,1.0,5.0,71,0.00,,,0.00,Wunderground v.1.15,2013-06-19 16:52:00,
2013-06-19 11:57:00,77.9,68.1,30.06,ESE,118,2.0,5.0,72,0.00,,,0.00,Wunderground v.1.15,2013-06-19 16:57:00,
2013-06-19 12:03:00,78.4,67.0,30.05,SSW,209,2.0,2.0,68,0.00,,,0.00,Wunderground v.1.15,2013-06-19 17:03:00,
2013-06-19 12:08:00,78.8,65.6,30.05,SSE,162,2.0,5.0,64,0.00,,,0.00,Wunderground v.1.15,2013-06-19 17:08:00,
2013-06-19 12:14:00,78.8,66.0,30.05,ESE,116,2.0,4.0,65,0.00,,,0.00,Wunderground v.1.15,2013-06-19 17:14:00,
2013-06-19 12:21:00,79.5,66.7,30.05,SSW,194,1.0,1.0,65,0.00,,,0.00,Wunderground v.1.15,2013-06-19 17:21:00,
2013-06-19 12:30:00,80.2,67.4,30.05,South,171,2.0,5.0,65,0.00,,,0.00,Wunderground v.1.15,2013-06-19 17:30:00,
2013-06-19 12:41:00,80.5,65.3,30.04,SSW,202,2.0,2.0,60,0.00,,,0.00,Wunderground v.1.15,2013-06-19 17:41:00,
2013-06-19 12:47:00,80.3,66.1,30.04,SSE,160,3.0,8.0,62,0.00,,,0.00,Wunderground v.1.15,2013-06-19 17:47:00,
2013-06-19 12:52:00,80.0,64.9,30.04,South,169,4.0,4.0,60,0.00,,,0.00,Wunderground v.1.15,2013-06-19 17:52:00,
2013-06-19 12:58:00,80.1,65.0,30.04,SE,126,2.0,5.0,60,0.00,,,0.00,Wunderground v.1.15,2013-06-19 17:58:00,
2013-06-19 13:03:00,80.3,64.7,30.04,SW,225,1.0,4.0,59,0.00,,,0.00,Wunderground v.1.15,2013-06-19 18:03:00,
2013-06-19 13:09:00,80.4,63.8,30.04,ESE,123,1.0,5.0,57,0.00,,,0.00,Wunderground v.1.15,2013-06-19 18:09:00,
2013-06-19 13:14:00,80.6,64.5,30.03,ESE,119,3.0,8.0,58,0.00,,,0.00,Wunderground v.1.15,2013-06-19 18:14:00,
2013-06-19 13:20:00,80.8,64.6,30.03,SE,142,4.0,4.0,58,0.00,,,0.00,Wunderground v.1.15,2013-06-19 18:20:00,
2013-06-19 13:25:00,80.9,63.2,30.03,SE,142,2.0,4.0,55,0.00,,,0.00,Wunderground v.1.15,2013-06-19 18:25:00,
2013-06-19 13:31:00,81.1,63.4,30.02,ESE,123,1.0,7.0,55,0.00,,,0.00,Wunderground v.1.15,2013-06-19 18:31:00,
2013-06-19 13:42:00,81.8,64.1,30.02,SSW,196,2.0,2.0,55,0.00,,,0.00,Wunderground v.1.15,2013-06-19 18:42:00,
2013-06-19 13:48:00,81.9,64.7,30.02,West,261,2.0,5.0,56,0.00,,,0.00,Wunderground v.1.15,2013-06-19 18:48:00,
2013-06-19 13:54:00,82.0,65.3,30.02,ESE,110,3.0,6.0,57,0.00,,,0.00,Wunderground v.1.15,2013-06-19 18:54:00,
2013-06-19 13:59:00,81.9,64.1,30.02,SSW,211,3.0,6.0,55,0.00,,,0.00,Wunderground v.1.15,2013-06-19 18:59:00,
2013-06-19 14:05:00,81.8,64.1,30.02,West,263,3.0,5.0,55,0.00,,,0.00,Wunderground v.1.15,2013-06-19 19:05:00,
2013-06-19 14:10:00,82.0,63.2,30.01,SE,126,2.0,2.0,53,0.00,,,0.00,Wunderground v.1.15,2013-06-19 19:10:00,
2013-06-19 14:16:00,82.1,64.3,30.01,WSW,238,2.0,4.0,55,0.00,,,0.00,Wunderground v.1.15,2013-06-19 19:16:00,
2013-06-19 14:21:00,82.5,63.1,30.01,WSW,241,3.0,6.0,52,0.00,,,0.00,Wunderground v.1.15,2013-06-19 19:21:00,
2013-06-19 14:27:00,82.4,63.5,30.01,WNW,294,4.0,7.0,53,0.00,,,0.00,Wunderground v.1.15,2013-06-19 19:27:00,
2013-06-19 14:32:00,82.2,62.3,30.01,West,259,5.0,7.0,51,0.00,,,0.00,Wunderground v.1.15,2013-06-19 19:32:00,
2013-06-19 14:38:00,82.5,61.4,30.01,SW,214,3.0,7.0,49,0.00,,,0.00,Wunderground v.1.15,2013-06-19 19:38:00,
2013-06-19 14:43:00,82.8,61.7,30.01,WSW,249,3.0,7.0,49,0.00,,,0.00,Wunderground v.1.15,2013-06-19 19:43:00,
2013-06-19 14:49:00,83.0,63.0,30.01,WSW,238,3.0,7.0,51,0.00,,,0.00,Wunderground v.1.15,2013-06-19 19:49:00,
2013-06-19 14:54:00,83.4,61.7,30.01,South,186,2.0,6.0,48,0.00,,,0.00,Wunderground v.1.15,2013-06-19 19:54:00,
2013-06-19 15:00:00,83.5,60.5,30.01,ESE,110,1.0,1.0,46,0.00,,,0.00,Wunderground v.1.15,2013-06-19 20:00:00,
2013-06-19 15:05:00,83.6,62.4,30.01,South,182,0.0,1.0,49,0.00,,,0.00,Wunderground v.1.15,2013-06-19 20:05:00,
2013-06-19 15:11:00,83.8,63.2,30.01,SE,138,1.0,3.0,50,0.00,,,0.00,Wunderground v.1.15,2013-06-19 20:11:00,
2013-06-19 15:16:00,83.2,61.5,30.01,ESE,113,2.0,3.0,48,0.00,,,0.00,Wunderground v.1.15,2013-06-19 20:16:00,
2013-06-19 15:22:00,83.4,65.0,30.00,SSW,208,2.0,5.0,54,0.00,,,0.00,Wunderground v.1.15,2013-06-19 20:22:00,
2013-06-19 15:27:00,83.7,63.1,30.00,SSW,208,1.0,5.0,50,0.00,,,0.00,Wunderground v.1.15,2013-06-19 20:27:00,
2013-06-19 15:33:00,83.9,63.3,30.00,SW,225,1.0,5.0,50,0.00,,,0.00,Wunderground v.1.15,2013-06-19 20:33:00,
2013-06-19 15:38:00,83.8,62.0,30.00,SE,135,2.0,5.0,48,0.00,,,0.00,Wunderground v.1.15,2013-06-19 20:38:00,
2013-06-19 15:44:00,83.5,62.3,30.00,SE,138,1.0,2.0,49,0.00,,,0.00,Wunderground v.1.15,2013-06-19 20:44:00,
2013-06-19 15:49:00,83.4,61.7,30.00,SE,127,1.0,2.0,48,0.00,,,0.00,Wunderground v.1.15,2013-06-19 20:49:00,
2013-06-19 15:55:00,83.1,60.8,30.00,South,170,1.0,4.0,47,0.00,,,0.00,Wunderground v.1.15,2013-06-19 20:55:00,
2013-06-19 16:00:00,82.8,60.5,30.00,SE,146,2.0,2.0,47,0.00,,,0.00,Wunderground v.1.15,2013-06-19 21:00:00,
2013-06-19 16:06:00,82.7,59.2,30.00,SE,146,1.0,2.0,45,0.00,,,0.00,Wunderground v.1.15,2013-06-19 21:06:00,
2013-06-19 16:12:00,82.6,60.3,30.00,SE,138,1.0,6.0,47,0.00,,,0.00,Wunderground v.1.15,2013-06-19 21:12:00,
2013-06-19 16:17:00,82.5,60.8,30.00,SSE,150,1.0,6.0,48,0.00,,,0.00,Wunderground v.1.15,2013-06-19 21:17:00,
2013-06-19 16:23:00,82.8,62.3,30.00,SE,145,0.0,1.0,50,0.00,,,0.00,Wunderground v.1.15,2013-06-19 21:23:00,
2013-06-19 16:28:00,83.3,62.7,30.00,SW,219,0.0,1.0,50,0.00,,,0.00,Wunderground v.1.15,2013-06-19 21:28:00,
2013-06-19 16:34:00,83.4,62.2,30.00,SW,219,1.0,4.0,49,0.00,,,0.00,Wunderground v.1.15,2013-06-19 21:34:00,
2013-06-19 16:39:00,83.1,62.0,30.00,WSW,250,2.0,6.0,49,0.00,,,0.00,Wunderground v.1.15,2013-06-19 21:39:00,
2013-06-19 16:45:00,83.7,61.9,30.00,SW,214,1.0,2.0,48,0.00,,,0.00,Wunderground v.1.15,2013-06-19 21:45:00,
2013-06-19 17:00:00,83.5,62.9,29.99,SSE,154,2.0,4.0,50,0.00,,,0.00,Wunderground v.1.15,2013-06-19 22:00:00,
2013-06-19 17:07:00,83.4,62.8,30.00,SE,144,2.0,5.0,50,0.00,,,0.00,Wunderground v.1.15,2013-06-19 22:07:00,
2013-06-19 17:13:00,83.5,62.9,29.99,SSE,159,2.0,4.0,50,0.00,,,0.00,Wunderground v.1.15,2013-06-19 22:13:00,
2013-06-19 17:18:00,83.5,63.5,30.00,SSE,153,2.0,4.0,51,0.00,,,0.00,Wunderground v.1.15,2013-06-19 22:18:00,
2013-06-19 17:24:00,83.5,63.5,30.00,SW,232,1.0,1.0,51,0.00,,,0.00,Wunderground v.1.15,2013-06-19 22:24:00,
2013-06-19 17:30:00,83.5,64.0,29.99,SW,231,0.0,2.0,52,0.00,,,0.00,Wunderground v.1.15,2013-06-19 22:30:00,
2013-06-19 17:35:00,83.5,63.5,29.99,SSW,196,1.0,2.0,51,0.00,,,0.00,Wunderground v.1.15,2013-06-19 22:35:00,
2013-06-19 17:40:00,83.1,62.0,29.99,SE,134,1.0,1.0,49,0.00,,,0.00,Wunderground v.1.15,2013-06-19 22:40:00,
2013-06-19 17:46:00,83.1,64.2,29.99,SW,221,1.0,4.0,53,0.00,,,0.00,Wunderground v.1.15,2013-06-19 22:46:00,
2013-06-19 17:52:00,83.5,64.6,29.99,SW,222,1.0,3.0,53,0.00,,,0.00,Wunderground v.1.15,2013-06-19 22:52:00,
2013-06-19 17:57:00,83.9,62.7,29.99,SW,222,1.0,3.0,49,0.00,,,0.00,Wunderground v.1.15,2013-06-19 22:57:00,
2013-06-19 18:09:00,83.2,62.1,29.99,SSE,151,3.0,3.0,49,0.00,,,0.00,Wunderground v.1.15,2013-06-19 23:09:00,
2013-06-19 18:23:00,83.0,63.0,29.99,SSE,150,2.0,2.0,51,0.00,,,0.00,Wunderground v.1.15,2013-06-19 23:23:00,
2013-06-19 18:29:00,82.5,62.5,29.99,SE,146,2.0,6.0,51,0.00,,,0.00,Wunderground v.1.15,2013-06-19 23:29:00,
2013-06-19 18:34:00,82.1,63.3,29.99,SSE,162,3.0,3.0,53,0.00,,,0.00,Wunderground v.1.15,2013-06-19 23:34:00,
2013-06-19 18:39:00,81.7,63.4,29.99,SE,144,2.0,4.0,54,0.00,,,0.00,Wunderground v.1.15,2013-06-19 23:39:00,
2013-06-19 18:45:00,81.4,62.6,29.99,SE,146,2.0,2.0,53,0.00,,,0.00,Wunderground v.1.15,2013-06-19 23:45:00,
2013-06-19 18:51:00,81.3,63.6,29.99,SSE,153,1.0,3.0,55,0.00,,,0.00,Wunderground v.1.15,2013-06-19 23:51:00,
2013-06-19 18:57:00,81.4,63.7,29.99,SSE,160,0.0,2.0,55,0.00,,,0.00,Wunderground v.1.15,2013-06-19 23:57:00,
2013-06-19 19:03:00,81.6,63.9,29.99,SE,143,0.0,1.0,55,0.00,,,0.00,Wunderground v.1.15,2013-06-20 00:03:00,
2013-06-19 19:08:00,81.8,64.1,29.99,SE,143,1.0,1.0,55,0.00,,,0.00,Wunderground v.1.15,2013-06-20 00:08:00,
2013-06-19 19:14:00,81.8,64.1,29.99,SE,143,0.0,1.0,55,0.00,,,0.00,Wunderground v.1.15,2013-06-20 00:14:00,
2013-06-19 19:19:00,81.7,64.5,29.99,SSE,150,1.0,4.0,56,0.00,,,0.00,Wunderground v.1.15,2013-06-20 00:19:00,
2013-06-19 19:25:00,81.5,63.8,29.99,SSE,148,3.0,6.0,55,0.00,,,0.00,Wunderground v.1.15,2013-06-20 00:25:00,
2013-06-19 19:30:00,81.4,63.7,29.98,SSE,147,3.0,4.0,55,0.00,,,0.00,Wunderground v.1.15,2013-06-20 00:30:00,
2013-06-19 19:36:00,81.1,63.9,29.98,SE,136,3.0,5.0,56,0.00,,,0.00,Wunderground v.1.15,2013-06-20 00:36:00,
2013-06-19 19:41:00,80.9,64.7,29.98,SE,144,3.0,3.0,58,0.00,,,0.00,Wunderground v.1.15,2013-06-20 00:41:00,
2013-06-19 19:47:00,80.6,64.9,29.98,SE,146,2.0,6.0,59,0.00,,,0.00,Wunderground v.1.15,2013-06-20 00:47:00,
2013-06-19 19:52:00,80.3,65.1,29.98,SE,146,2.0,3.0,60,0.00,,,0.00,Wunderground v.1.15,2013-06-20 00:52:00,
2013-06-19 19:58:00,79.9,65.2,29.99,SE,146,1.0,3.0,61,0.00,,,0.00,Wunderground v.1.15,2013-06-20 00:58:00,
2013-06-19 20:04:00,79.6,64.5,29.98,SE,146,0.0,2.0,60,0.00,,,0.00,Wunderground v.1.15,2013-06-20 01:04:00,
2013-06-19 20:10:00,79.2,65.1,29.98,SE,146,0.0,1.0,62,0.00,,,0.00,Wunderground v.1.15,2013-06-20 01:10:00,
2013-06-19 20:16:00,78.8,65.6,29.99,SE,146,0.0,1.0,64,0.00,,,0.00,Wunderground v.1.15,2013-06-20 01:16:00,
2013-06-19 20:21:00,78.5,65.8,29.99,SE,146,0.0,1.0,65,0.00,,,0.00,Wunderground v.1.15,2013-06-20 01:21:00,
2013-06-19 20:27:00,78.1,65.8,29.99,SE,146,0.0,1.0,66,0.00,,,0.00,Wunderground v.1.15,2013-06-20 01:27:00,
2013-06-19 20:32:00,77.7,65.9,29.99,SE,146,0.0,1.0,67,0.00,,,0.00,Wunderground v.1.15,2013-06-20 01:32:00,
2013-06-19 20:38:00,77.2,66.2,29.99,SE,146,0.0,1.0,69,0.00,,,0.00,Wunderground v.1.15,2013-06-20 01:38:00,
2013-06-19 20:53:00,76.0,66.3,29.99,SE,146,0.0,1.0,72,0.00,,,0.00,Wunderground v.1.15,2013-06-20 01:53:00,
2013-06-19 20:59:00,75.6,65.9,29.99,SE,146,0.0,1.0,72,0.00,,,0.00,Wunderground v.1.15,2013-06-20 01:59:00,
2013-06-19 21:05:00,75.2,65.9,29.99,SE,146,0.0,1.0,73,0.00,,,0.00,Wunderground v.1.15,2013-06-20 02:05:00,
2013-06-19 21:10:00,75.0,66.1,29.99,SE,146,0.0,1.0,74,0.00,,,0.00,Wunderground v.1.15,2013-06-20 02:10:00,
2013-06-19 21:16:00,74.8,65.2,29.99,SE,146,1.0,2.0,72,0.00,,,0.00,Wunderground v.1.15,2013-06-20 02:16:00,
2013-06-19 21:21:00,74.7,65.1,29.99,SE,146,0.0,1.0,72,0.00,,,0.00,Wunderground v.1.15,2013-06-20 02:21:00,
2013-06-19 21:27:00,74.5,65.7,29.99,SE,146,0.0,1.0,74,0.00,,,0.00,Wunderground v.1.15,2013-06-20 02:27:00,
2013-06-19 21:32:00,74.2,64.6,29.99,SE,146,0.0,1.0,72,0.00,,,0.00,Wunderground v.1.15,2013-06-20 02:32:00,
2013-06-19 21:38:00,73.9,64.7,30.00,SE,146,0.0,1.0,73,0.00,,,0.00,Wunderground v.1.15,2013-06-20 02:38:00,
2013-06-19 21:43:00,73.8,64.6,30.00,SE,146,0.0,1.0,73,0.00,,,0.00,Wunderground v.1.15,2013-06-20 02:43:00,
2013-06-19 21:49:00,73.6,64.0,30.00,SE,146,0.0,1.0,72,0.00,,,0.00,Wunderground v.1.15,2013-06-20 02:49:00,
2013-06-19 21:55:00,73.4,64.6,30.00,SE,146,0.0,1.0,74,0.00,,,0.00,Wunderground v.1.15,2013-06-20 02:55:00,
2013-06-19 22:00:00,73.2,64.4,30.00,SE,146,0.0,1.0,74,0.00,,,0.00,Wunderground v.1.15,2013-06-20 03:00:00,
2013-06-19 22:05:00,73.0,64.2,30.00,SE,146,0.0,1.0,74,0.00,,,0.00,Wunderground v.1.15,2013-06-20 03:05:00,
2013-06-19 22:11:00,72.7,63.9,30.00,SE,146,0.0,1.0,74,0.00,,,0.00,Wunderground v.1.15,2013-06-20 03:11:00,
2013-06-19 22:17:00,72.7,63.9,30.00,SE,146,1.0,5.0,74,0.00,,,0.00,Wunderground v.1.15,2013-06-20 03:17:00,
2013-06-19 22:22:00,72.8,62.8,30.00,SE,146,2.0,4.0,71,0.00,,,0.00,Wunderground v.1.15,2013-06-20 03:22:00,
2013-06-19 22:28:00,73.1,63.1,30.00,SE,146,3.0,5.0,71,0.00,,,0.00,Wunderground v.1.15,2013-06-20 03:28:00,
2013-06-19 22:35:00,73.1,63.1,30.00,SE,146,2.0,3.0,71,0.00,,,0.00,Wunderground v.1.15,2013-06-20 03:35:00,
2013-06-19 22:42:00,72.7,63.9,30.01,SE,146,0.0,1.0,74,0.00,,,0.00,Wunderground v.1.15,2013-06-20 03:42:00,
2013-06-19 22:48:00,72.3,63.5,30.01,SE,146,0.0,1.0,74,0.00,,,0.00,Wunderground v.1.15,2013-06-20 03:48:00,
2013-06-19 22:54:00,72.0,63.6,30.01,SE,146,0.0,1.0,75,0.00,,,0.00,Wunderground v.1.15,2013-06-20 03:54:00,
2013-06-19 23:00:00,71.6,63.3,30.02,SE,146,0.0,1.0,75,0.00,,,0.00,Wunderground v.1.15,2013-06-20 04:00:00,
2013-06-19 23:01:00,71.5,63.2,30.02,SE,146,0.0,1.0,75,0.00,,,0.00,Wunderground v.1.15,2013-06-20 04:01:00,
2013-06-19 23:03:00,71.5,63.2,30.02,SE,146,0.0,1.0,75,0.00,,,0.00,Wunderground v.1.15,2013-06-20 04:03:00,
2013-06-19 23:04:00,71.4,63.1,30.02,SE,146,0.0,1.0,75,0.00,,,0.00,Wunderground v.1.15,2013-06-20 04:04:00,
2013-06-19 23:09:00,71.3,63.7,30.02,SE,146,0.0,1.0,77,0.00,,,0.00,Wunderground v.1.15,2013-06-20 04:09:00,
2013-06-19 23:13:00,71.1,63.1,30.02,SE,146,0.0,1.0,76,0.00,,,0.00,Wunderground v.1.15,2013-06-20 04:13:00,
2013-06-19 23:18:00,70.9,62.6,30.02,SE,146,0.0,1.0,75,0.00,,,0.00,Wunderground v.1.15,2013-06-20 04:18:00,
2013-06-19 23:24:00,70.7,62.8,30.02,SE,146,0.0,1.0,76,0.00,,,0.00,Wunderground v.1.15,2013-06-20 04:24:00,
2013-06-19 23:29:00,70.7,63.1,30.02,SE,146,0.0,1.0,77,0.00,,,0.00,Wunderground v.1.15,2013-06-20 04:29:00,
2013-06-19 23:35:00,70.5,63.3,30.02,SE,146,0.0,1.0,78,0.00,,,0.00,Wunderground v.1.15,2013-06-20 04:35:00,
2013-06-19 23:41:00,70.2,63.4,30.02,SE,146,0.0,1.0,79,0.00,,,0.00,Wunderground v.1.15,2013-06-20 04:41:00,
2013-06-19 23:47:00,69.9,63.1,30.02,SE,146,0.0,1.0,79,0.00,,,0.00,Wunderground v.1.15,2013-06-20 04:47:00,
2013-06-19 23:53:00,69.6,62.8,30.02,SE,146,0.0,1.0,79,0.00,,,0.00,Wunderground v.1.15,2013-06-20 04:53:00,
2013-06-19 23:58:00,69.5,63.1,30.02,SE,146,0.0,1.0,80,0.00,,,0.00,Wunderground v.1.15,2013-06-20 04:58:00,